createdAt,value
2018-05-16T00:03:06.774Z,100876.30
2018-05-16T00:07:58.041Z,100878.98
2018-05-16T00:12:49.336Z,100870.69
2018-05-16T00:17:40.646Z,100876.49
2018-05-16T00:22:31.962Z,100873.78
2018-05-16T00:27:23.214Z,100881.50
2018-05-16T00:32:15.320Z,100872.14
2018-05-16T00:37:06.580Z,100883.93
2018-05-16T00:41:57.837Z,100881.47
2018-05-16T00:46:49.101Z,100884.02
2018-05-16T00:51:40.407Z,100881.59
2018-05-16T00:56:32.396Z,100884.34
2018-05-16T01:01:23.641Z,100870.91
2018-05-16T01:06:14.880Z,100867.91
2018-05-16T01:11:06.178Z,100876.05
2018-05-16T01:15:57.502Z,100871.03
2018-05-16T01:20:48.741Z,100878.88
2018-05-16T01:25:40.020Z,100870.72
2018-05-16T01:30:32.083Z,100875.73
2018-05-16T01:35:23.342Z,100870.84
2018-05-16T01:40:14.621Z,100873.14
2018-05-16T01:45:05.903Z,100871.50
2018-05-16T01:49:57.231Z,100861.60
2018-05-16T01:54:48.532Z,100871.66
2018-05-16T01:59:39.842Z,100873.55
2018-05-16T02:04:31.921Z,100874.75
2018-05-16T02:09:23.207Z,100875.45
2018-05-16T02:14:14.473Z,100869.20
2018-05-16T02:19:05.806Z,100869.61
2018-05-16T02:23:57.105Z,100863.08
2018-05-16T02:28:49.109Z,100858.86
2018-05-16T02:33:40.377Z,100862.35
2018-05-16T02:38:31.720Z,100858.53
2018-05-16T02:43:23.697Z,100854.06
2018-05-16T02:48:14.983Z,100863.14
2018-05-16T02:53:07.065Z,100862.85
2018-05-16T02:57:58.357Z,100864.45
2018-05-16T03:02:49.644Z,100860.96
2018-05-16T03:07:40.977Z,100859.07
2018-05-16T03:12:32.201Z,100871.77
2018-05-16T03:17:23.491Z,100870.80
2018-05-16T03:22:15.530Z,100867.67
2018-05-16T03:27:07.520Z,100863.60
2018-05-16T03:31:58.782Z,100864.45
2018-05-16T03:36:50.089Z,100860.64
2018-05-16T03:41:41.391Z,100865.24
2018-05-16T03:46:32.685Z,100855.34
2018-05-16T03:51:24.794Z,100852.88
2018-05-16T03:56:16.201Z,100855.02
2018-05-16T04:01:26.076Z,100859.09
2018-05-16T04:06:17.425Z,100856.22
2018-05-16T04:11:08.688Z,100852.02
2018-05-16T04:15:59.930Z,100849.06
2018-05-16T04:20:51.914Z,100853.51
2018-05-16T04:25:43.984Z,100847.84
2018-05-16T04:30:35.474Z,100854.52
2018-05-16T04:35:26.889Z,100850.05
2018-05-16T04:40:18.119Z,100862.25
2018-05-16T04:45:09.447Z,100853.67
2018-05-16T04:50:01.512Z,100864.14
2018-05-16T04:54:52.806Z,100867.80
2018-05-16T04:59:44.141Z,100870.67
2018-05-16T05:04:35.398Z,100867.92
2018-05-16T05:09:26.782Z,100874.11
2018-05-16T05:14:18.008Z,100889.34
2018-05-16T05:19:09.249Z,100882.76
2018-05-16T05:24:00.499Z,100874.50
2018-05-16T05:28:52.533Z,100884.06
2018-05-16T05:33:44.572Z,100875.80
2018-05-16T05:38:35.843Z,100877.84
2018-05-16T05:43:27.148Z,100871.48
2018-05-16T05:48:18.545Z,100872.14
2018-05-16T05:53:09.866Z,100879.14
2018-05-16T05:58:01.125Z,100879.13
2018-05-16T06:02:52.998Z,100875.58
2018-05-16T06:07:44.261Z,100871.17
2018-05-16T06:12:35.568Z,100870.38
2018-05-16T06:17:27.020Z,100877.91
2018-05-16T06:22:18.295Z,100866.69
2018-05-16T06:27:10.355Z,100875.39
2018-05-16T06:32:01.724Z,100873.82
2018-05-16T06:36:52.990Z,100875.34
2018-05-16T06:41:44.278Z,100874.16
2018-05-16T06:46:35.545Z,100863.56
2018-05-16T06:51:26.837Z,100864.58
2018-05-16T06:56:18.201Z,100857.97
2018-05-16T07:01:09.466Z,100864.04
2018-05-16T07:06:00.938Z,100872.80
2018-05-16T07:10:52.276Z,100869.91
2018-05-16T07:15:43.536Z,100872.55
2018-05-16T07:20:34.816Z,100877.66
2018-05-16T07:25:26.153Z,100884.20
2018-05-16T07:30:17.428Z,100880.23
2018-05-16T07:35:09.454Z,100874.78
2018-05-16T07:40:00.980Z,100872.44
2018-05-16T07:44:52.998Z,100870.84
2018-05-16T07:49:44.261Z,100879.56
2018-05-16T07:54:36.480Z,100868.48
2018-05-16T07:59:27.702Z,100871.83
2018-05-16T08:04:19.156Z,100875.64
2018-05-16T08:09:10.456Z,100871.55
2018-05-16T08:14:01.833Z,100871.13
2018-05-16T08:18:53.285Z,100874.27
2018-05-16T08:23:44.593Z,100872.49
2018-05-16T08:28:35.879Z,100864.37
2018-05-16T08:33:28.139Z,100865.17
2018-05-16T08:38:19.648Z,100860.39
2018-05-16T08:43:10.933Z,100859.23
2018-05-16T08:48:02.260Z,100859.60
2018-05-16T08:52:53.546Z,100866.48
2018-05-16T08:57:44.842Z,100868.89
2018-05-16T09:02:36.423Z,100871.16
2018-05-16T09:07:27.842Z,100874.05
2018-05-16T09:12:19.174Z,100872.94
2018-05-16T09:17:10.459Z,100865.83
2018-05-16T09:26:57.633Z,100871.73
2018-05-16T09:31:48.921Z,100861.17
2018-05-16T09:36:40.273Z,100862.34
2018-05-16T09:41:32.310Z,100857.91
2018-05-16T09:46:24.390Z,100859.76
2018-05-16T09:51:15.817Z,100864.27
2018-05-16T09:56:07.894Z,100861.31
2018-05-16T10:00:59.193Z,100862.56
2018-05-16T10:05:51.242Z,100864.19
2018-05-16T10:10:42.502Z,100870.91
2018-05-16T10:15:33.838Z,100868.88
2018-05-16T10:20:25.072Z,100854.47
2018-05-16T10:25:16.330Z,100854.31
2018-05-16T10:30:07.599Z,100862.41
2018-05-16T10:34:58.873Z,100858.88
2018-05-16T10:39:50.175Z,100859.91
2018-05-16T10:44:41.447Z,100853.83
2018-05-16T10:49:33.517Z,100853.20
2018-05-16T10:54:24.812Z,100855.41
2018-05-16T10:59:16.151Z,100838.48
2018-05-16T11:04:07.471Z,100850.38
2018-05-16T11:08:58.835Z,100842.77
2018-05-16T11:13:51.682Z,100838.83
2018-05-16T11:18:43.660Z,100835.13
2018-05-16T11:23:34.940Z,100828.08
2018-05-16T11:28:26.312Z,100817.82
2018-05-16T11:33:18.308Z,100820.48
2018-05-16T11:38:09.550Z,100799.78
2018-05-16T11:43:00.878Z,100804.80
2018-05-16T11:47:52.158Z,100804.60
2018-05-16T11:52:44.204Z,100798.31
2018-05-16T11:57:36.190Z,100800.20
2018-05-16T12:02:27.479Z,100800.34
2018-05-16T12:07:19.553Z,100795.63
2018-05-16T12:12:10.862Z,100796.53
2018-05-16T12:17:02.921Z,100803.47
2018-05-16T12:21:54.909Z,100797.02
2018-05-16T12:26:46.416Z,100793.63
2018-05-16T12:31:37.742Z,100791.69
2018-05-16T12:36:29.393Z,100791.22
2018-05-16T12:41:20.759Z,100783.49
2018-05-16T12:46:12.099Z,100779.77
2018-05-16T12:51:03.365Z,100784.45
2018-05-16T12:55:54.641Z,100771.80
2018-05-16T13:00:45.926Z,100772.23
2018-05-16T13:05:37.319Z,100764.44
2018-05-16T13:10:36.366Z,100756.09
2018-05-16T13:15:34.461Z,100759.64
2018-05-16T13:20:25.769Z,100759.13
2018-05-16T13:25:17.165Z,100751.92
2018-05-16T13:30:08.420Z,100753.31
2018-05-16T13:35:00.414Z,100753.61
2018-05-16T13:39:51.810Z,100752.67
2018-05-16T13:44:43.080Z,100748.89
2018-05-16T13:49:34.408Z,100753.42
2018-05-16T13:54:25.735Z,100749.89
2018-05-16T13:59:17.133Z,100745.89
2018-05-16T14:04:08.429Z,100742.23
2018-05-16T14:09:00.508Z,100737.93
2018-05-16T14:13:51.868Z,100754.21
2018-05-16T14:18:43.193Z,100753.84
2018-05-16T14:23:34.486Z,100760.18
2018-05-16T14:28:26.526Z,100770.06
2018-05-16T14:33:17.831Z,100761.47
2018-05-16T14:38:09.099Z,100761.88
2018-05-16T14:43:01.234Z,100760.66
2018-05-16T14:47:52.613Z,100763.77
2018-05-16T14:52:43.851Z,100756.34
2018-05-16T14:57:35.135Z,100756.76
2018-05-16T15:02:26.441Z,100763.57
2018-05-16T15:07:18.506Z,100764.54
2018-05-16T15:12:10.512Z,100760.98
2018-05-16T15:17:01.793Z,100752.71
2018-05-16T15:21:53.050Z,100753.58
2018-05-16T15:26:44.384Z,100751.17
2018-05-16T15:31:35.632Z,100747.78
2018-05-16T15:36:26.998Z,100741.87
2018-05-16T15:41:19.049Z,100746.28
2018-05-16T15:46:11.052Z,100739.08
2018-05-16T15:51:02.379Z,100733.72
2018-05-16T15:55:53.634Z,100736.95
2018-05-16T16:00:45.016Z,100740.52
2018-05-16T16:05:41.373Z,100743.34
2018-05-16T16:10:32.770Z,100743.91
2018-05-16T16:15:24.068Z,100738.08
2018-05-16T16:20:15.341Z,100737.09
2018-05-16T16:25:06.659Z,100738.02
2018-05-16T16:29:57.953Z,100740.02
2018-05-16T16:34:49.232Z,100733.03
2018-05-16T16:39:40.506Z,100728.05
2018-05-16T16:44:31.837Z,100732.83
2018-05-16T16:49:23.064Z,100722.68
2018-05-16T16:54:14.348Z,100724.08
2018-05-16T16:59:05.697Z,100711.92
2018-05-16T17:03:57.032Z,100710.14
2018-05-16T17:08:48.329Z,100714.74
2018-05-16T17:13:40.325Z,100715.32
2018-05-16T17:18:31.566Z,100711.34
2018-05-16T17:23:22.911Z,100708.76
2018-05-16T17:28:14.104Z,100708.75
2018-05-16T17:33:05.769Z,100709.47
2018-05-16T17:37:57.042Z,100700.72
2018-05-16T17:42:48.353Z,100705.23
2018-05-16T17:47:39.632Z,100701.27
2018-05-16T17:52:30.884Z,100696.66
2018-05-16T17:57:22.241Z,100700.08
2018-05-16T18:02:14.224Z,100704.27
2018-05-16T18:07:05.563Z,100704.00
2018-05-16T18:11:56.878Z,100705.25
2018-05-16T18:17:06.700Z,100709.50
2018-05-16T18:21:57.937Z,100709.16
2018-05-16T18:26:49.972Z,100712.50
2018-05-16T18:31:42.029Z,100720.89
2018-05-16T18:36:34.073Z,100722.13
2018-05-16T18:41:26.081Z,100727.18
2018-05-16T18:46:17.371Z,100733.60
2018-05-16T18:51:08.671Z,100739.20
2018-05-16T18:56:00.712Z,100740.98
2018-05-16T19:00:52.013Z,100746.64
2018-05-16T19:05:43.424Z,100758.48
2018-05-16T19:10:34.660Z,100760.11
2018-05-16T19:15:25.901Z,100765.20
2018-05-16T19:20:17.213Z,100771.33
2018-05-16T19:25:08.519Z,100776.24
2018-05-16T19:29:59.775Z,100775.20
2018-05-16T19:34:50.997Z,100782.80
2018-05-16T19:39:42.436Z,100784.92
2018-05-16T19:44:33.839Z,100780.22
2018-05-16T19:49:25.089Z,100781.65
2018-05-16T19:54:16.348Z,100778.20
2018-05-16T19:59:07.658Z,100786.14
2018-05-16T20:03:59.004Z,100788.02
2018-05-16T20:08:50.286Z,100789.54
2018-05-16T20:13:41.622Z,100791.62
2018-05-16T20:18:32.978Z,100789.03
2018-05-16T20:23:24.261Z,100790.30
2018-05-16T20:28:16.332Z,100789.77
2018-05-16T20:33:07.626Z,100784.11
2018-05-16T20:37:59.648Z,100789.47
2018-05-16T20:42:50.957Z,100793.59
2018-05-16T20:47:42.320Z,100794.66
2018-05-16T20:52:33.606Z,100792.48
2018-05-16T20:57:24.903Z,100793.88
2018-05-16T21:02:16.936Z,100789.19
2018-05-16T21:07:08.249Z,100795.75
2018-05-16T21:11:59.541Z,100790.13
2018-05-16T21:16:50.809Z,100789.78
2018-05-16T21:21:49.065Z,100794.81
2018-05-16T21:26:40.389Z,100785.29
2018-05-16T21:31:31.686Z,100792.67
2018-05-16T21:36:22.957Z,100794.31
2018-05-16T21:41:14.253Z,100791.69
2018-05-16T21:46:06.354Z,100794.26
2018-05-16T21:50:57.580Z,100791.98
2018-05-16T21:55:48.875Z,100791.86
2018-05-16T22:00:40.904Z,100782.19
2018-05-16T22:05:32.360Z,100787.13
2018-05-16T22:10:24.362Z,100787.78
2018-05-16T22:15:15.596Z,100784.77
2018-05-16T22:20:06.863Z,100790.76
2018-05-16T22:24:58.105Z,100784.67
2018-05-16T22:29:49.449Z,100778.67
2018-05-16T22:34:46.702Z,100774.59
2018-05-16T22:39:44.209Z,100774.88
2018-05-16T22:44:36.270Z,100774.08
2018-05-16T22:49:27.550Z,100768.71
2018-05-16T22:54:18.881Z,100761.56
2018-05-16T22:59:10.226Z,100760.94
2018-05-16T23:04:01.515Z,100759.66
2018-05-16T23:08:53.567Z,100760.97
2018-05-16T23:13:45.618Z,100753.66
2018-05-16T23:18:37.620Z,100755.63
2018-05-16T23:23:28.930Z,100758.67
2018-05-16T23:28:20.205Z,100760.36
2018-05-16T23:33:12.299Z,100754.56
2018-05-16T23:38:03.573Z,100747.39
2018-05-16T23:42:54.781Z,100740.59
2018-05-16T23:47:46.030Z,100736.80
2018-05-16T23:52:37.415Z,100744.00
2018-05-16T23:57:28.724Z,100743.64
